Time;durP1;ratioP1;P1;durP2;ratioP2;P2;SDS_P1;SDS_P2;PMS_P1;PMS_P2;Temp;Humidity;BMP_temperature;BMP_pressure;BME280_temperature;BME280_humidity;BME280_pressure;Samples;Min_cycle;Max_cycle;Signal;HPM_P1;HPM_P2
2023/07/21 00:02:04;;;;;;;3.47;1.88;;;13.70;1.00;;;;;;5031579;28;20056;-64
2023/07/21 00:04:30;;;;;;;3.17;1.85;;;13.60;99.90;;;;;;5032851;28;20455;-63
2023/07/21 00:06:55;;;;;;;4.05;1.50;;;13.70;99.90;;;;;;5033094;28;20049;-63
2023/07/21 00:09:21;;;;;;;2.88;1.80;;;13.70;99.90;;;;;;5032907;28;20374;-64
2023/07/21 00:11:47;;;;;;;2.35;1.70;;;13.50;99.90;;;;;;5032967;28;20037;-63
2023/07/21 00:14:13;;;;;;;6.32;1.77;;;13.30;1.00;;;;;;5032646;28;20162;-64
2023/07/21 00:16:39;;;;;;;3.22;1.48;;;13.70;1.00;;;;;;5032652;28;20081;-63
2023/07/21 00:19:06;;;;;;;2.50;1.55;;;13.50;1.00;;;;;;5032877;28;20048;-64
2023/07/21 00:21:32;;;;;;;4.32;1.80;;;13.40;1.00;;;;;;5032848;28;20049;-64
2023/07/21 00:23:58;;;;;;;3.85;1.60;;;14.50;1.00;;;;;;5031243;28;20049;-63
2023/07/21 00:26:24;;;;;;;3.13;1.70;;;13.50;1.00;;;;;;5032869;28;20214;-63
2023/07/21 00:28:50;;;;;;;3.35;1.65;;;13.60;1.00;;;;;;5032495;28;20040;-63
2023/07/21 00:31:16;;;;;;;2.55;1.55;;;13.50;1.00;;;;;;5031522;28;20055;-63
2023/07/21 00:33:41;;;;;;;4.63;1.77;;;13.30;1.00;;;;;;5032786;28;20473;-63
2023/07/21 00:36:08;;;;;;;2.70;1.67;;;13.60;1.00;;;;;;5032489;28;20041;-63
2023/07/21 00:38:34;;;;;;;3.15;1.90;;;13.60;1.00;;;;;;5034108;28;20075;-63
2023/07/21 00:41:00;;;;;;;4.20;1.90;;;14.30;1.00;;;;;;5035180;28;20045;-63
2023/07/21 00:43:26;;;;;;;3.83;2.20;;;15.60;1.00;;;;;;5035027;28;20041;-63
2023/07/21 00:45:52;;;;;;;3.35;2.40;;;14.10;1.00;;;;;;5036520;28;20504;-63
2023/07/21 00:48:18;;;;;;;5.80;2.53;;;13.60;1.00;;;;;;5036383;28;20496;-63
2023/07/21 00:50:52;;;;;;;3.70;2.40;;;13.50;1.00;;;;;;5036414;28;20061;-63
2023/07/21 00:53:19;;;;;;;4.82;2.55;;;13.60;1.00;;;;;;5036085;28;20130;-63
2023/07/21 00:55:47;;;;;;;4.20;2.42;;;13.50;1.00;;;;;;5036389;28;20046;-63
2023/07/21 00:58:14;;;;;;;3.35;2.03;;;13.60;1.00;;;;;;5036311;28;20041;-63
2023/07/21 01:00:40;;;;;;;5.38;2.30;;;13.60;1.00;;;;;;5034778;28;20239;-63
2023/07/21 01:03:08;;;;;;;4.07;2.20;;;13.10;1.00;;;;;;5036236;28;20091;-67
2023/07/21 01:05:38;;;;;;;5.63;2.45;;;13.50;1.00;;;;;;5035822;28;20048;-64
2023/07/21 01:08:05;;;;;;;3.45;2.65;;;13.50;1.00;;;;;;5036233;28;20065;-63
2023/07/21 01:10:33;;;;;;;4.13;2.75;;;13.40;1.00;;;;;;5036048;28;20116;-63
2023/07/21 01:13:00;;;;;;;4.93;2.72;;;13.40;1.00;;;;;;5035808;28;20394;-63
2023/07/21 01:15:27;;;;;;;5.78;3.28;;;13.30;1.00;;;;;;5035748;28;20045;-63
2023/07/21 01:17:54;;;;;;;4.18;3.15;;;13.40;1.00;;;;;;5035608;28;20053;-63
2023/07/21 01:20:23;;;;;;;4.53;3.17;;;13.30;1.00;;;;;;5035983;28;20485;-63
2023/07/21 01:23:00;;;;;;;5.43;2.70;;;13.30;1.00;;;;;;5035888;28;20049;-63
2023/07/21 01:25:28;;;;;;;4.13;2.75;;;13.30;1.00;;;;;;5035499;28;20045;-63
2023/07/21 01:27:55;;;;;;;5.93;3.00;;;13.30;1.00;;;;;;5035520;28;20245;-63
2023/07/21 01:30:21;;;;;;;8.20;3.28;;;13.20;1.00;;;;;;5035658;28;20037;-63
2023/07/21 01:32:50;;;;;;;7.15;3.38;;;13.20;1.00;;;;;;5035744;28;20443;-63
2023/07/21 01:35:17;;;;;;;4.25;2.90;;;13.20;1.00;;;;;;5035312;28;20041;-63
2023/07/21 01:37:45;;;;;;;4.43;2.58;;;13.70;1.00;;;;;;5035275;28;20041;-63
2023/07/21 01:40:13;;;;;;;5.40;2.83;;;13.30;1.00;;;;;;5035638;28;20408;-63
2023/07/21 01:42:50;;;;;;;4.93;3.17;;;13.20;1.00;;;;;;5049948;22;20044;-73
2023/07/21 01:45:25;;;;;;;5.10;3.47;;;13.10;1.00;;;;;;5013821;28;20417;-73
2023/07/21 01:47:55;;;;;;;5.40;3.20;;;13.10;1.00;;;;;;5014407;28;20574;-74
2023/07/21 01:50:24;;;;;;;5.07;2.67;;;13.00;1.00;;;;;;4997109;28;20048;-74
2023/07/21 01:52:51;;;;;;;4.53;2.83;;;13.00;1.00;;;;;;5014349;28;20038;-74
2023/07/21 01:55:24;;;;;;;4.65;2.95;;;15.40;1.00;;;;;;5013967;28;20042;-74
2023/07/21 01:58:03;;;;;;;7.45;3.00;;;14.80;1.00;;;;;;5014002;28;20042;-74
2023/07/21 02:00:34;;;;;;;6.82;3.00;;;14.70;1.00;;;;;;5013954;28;20104;-74
2023/07/21 02:03:01;;;;;;;;;;;12.80;1.00;;;;;;4997995;28;20041;-74
2023/07/21 02:05:27;;;;;;;3.22;2.20;;;12.80;5.60;;;;;;5014120;28;19918;-74
2023/07/21 02:07:53;;;;;;;3.85;2.13;;;13.10;1.00;;;;;;5013730;28;20077;-74
2023/07/21 02:10:19;;;;;;;6.05;2.40;;;12.70;1.00;;;;;;5013661;28;20069;-74
2023/07/21 02:12:45;;;;;;;3.35;2.20;;;12.80;1.00;;;;;;5013628;28;20528;-74
2023/07/21 02:15:11;;;;;;;6.55;2.65;;;12.80;1.00;;;;;;5013904;28;20482;-74
2023/07/21 02:17:37;;;;;;;3.60;2.25;;;12.80;1.00;;;;;;5013820;28;20096;-74
2023/07/21 02:20:09;;;;;;;5.45;2.50;;;12.70;1.00;;;;;;5013820;28;20046;-74
2023/07/21 02:22:39;;;;;;;3.15;2.13;;;12.70;1.00;;;;;;5013454;28;20129;-74
2023/07/21 02:25:06;;;;;;;;;;;12.90;1.00;;;;;;4997823;28;20505;-74
2023/07/21 02:27:32;;;;;;;3.05;1.98;;;12.60;12.60;;;;;;5029817;28;19921;-73
2023/07/21 02:29:59;;;;;;;2.92;1.90;;;12.50;10.80;;;;;;5013402;28;20048;-73
2023/07/21 02:32:25;;;;;;;4.57;2.65;;;12.60;5.60;;;;;;5013551;28;20056;-74
2023/07/21 02:34:50;;;;;;;4.28;2.13;;;12.50;6.50;;;;;;5013292;28;20441;-74
2023/07/21 02:37:16;;;;;;;4.25;2.53;;;12.50;2.40;;;;;;5013474;28;20081;-73
2023/07/21 02:39:42;;;;;;;5.05;2.30;;;13.10;1.00;;;;;;5013253;28;20053;-74
2023/07/21 02:42:08;;;;;;;3.95;2.38;;;12.10;1.00;;;;;;5013392;28;20064;-74
2023/07/21 02:44:34;;;;;;;3.28;2.15;;;12.50;1.00;;;;;;5012917;28;20123;-74
2023/07/21 02:47:00;;;;;;;3.58;2.40;;;13.30;1.00;;;;;;5013104;28;20050;-74
2023/07/21 02:49:26;;;;;;;3.90;2.38;;;12.40;1.00;;;;;;5012894;28;20069;-74
2023/07/21 02:51:51;;;;;;;3.92;2.53;;;12.50;1.00;;;;;;4996643;28;20046;-73
2023/07/21 02:54:17;;;;;;;6.32;3.22;;;12.30;1.00;;;;;;5012909;28;20127;-74
2023/07/21 02:56:44;;;;;;;4.25;2.80;;;12.50;1.00;;;;;;4996476;28;20126;-74
2023/07/21 02:59:10;;;;;;;5.15;2.55;;;12.20;1.00;;;;;;5013135;28;20092;-74
2023/07/21 03:01:37;;;;;;;4.65;2.38;;;12.40;1.00;;;;;;5012156;28;20038;-74
2023/07/21 03:04:03;;;;;;;4.03;2.03;;;12.70;2.00;;;;;;5012769;28;20056;-74
2023/07/21 03:06:30;;;;;;;4.10;2.28;;;12.30;6.30;;;;;;5012775;28;20046;-74
2023/07/21 03:08:56;;;;;;;3.78;2.38;;;12.30;1.00;;;;;;5012810;28;20037;-74
2023/07/21 03:11:22;;;;;;;3.55;2.25;;;12.70;1.00;;;;;;5012639;28;20053;-74
2023/07/21 03:13:48;;;;;;;4.38;2.15;;;11.90;1.00;;;;;;5012821;28;20397;-74
2023/07/21 03:16:13;;;;;;;4.70;2.03;;;12.30;1.00;;;;;;5012790;28;20448;-73
2023/07/21 03:18:39;;;;;;;3.63;1.95;;;13.00;1.00;;;;;;4996211;28;20038;-73
2023/07/21 03:21:05;;;;;;;2.47;1.85;;;12.20;3.50;;;;;;5012458;28;20041;-74
2023/07/21 03:23:31;;;;;;;2.53;1.75;;;12.20;7.70;;;;;;5012472;28;20061;-74
2023/07/21 03:25:57;;;;;;;3.42;1.75;;;12.20;7.10;;;;;;5012370;28;20636;-74
2023/07/21 03:28:23;;;;;;;2.30;1.77;;;11.70;5.00;;;;;;4995774;28;20046;-73
2023/07/21 03:31:02;;;;;;;4.60;1.90;;;12.10;10.60;;;;;;5012619;28;20054;-73
2023/07/21 03:33:28;;;;;;;4.05;1.90;;;11.90;10.10;;;;;;5012263;28;20168;-73
2023/07/21 03:36:02;;;;;;;2.60;1.80;;;11.80;9.00;;;;;;5012301;28;20095;-74
2023/07/21 03:38:30;;;;;;;4.10;1.92;;;12.00;10.40;;;;;;5012336;28;20042;-74
2023/07/21 03:41:01;;;;;;;5.47;2.30;;;12.70;17.10;;;;;;5012439;28;20132;-74
2023/07/21 03:43:26;;;;;;;3.65;2.10;;;12.00;15.40;;;;;;5012146;28;20061;-74
2023/07/21 03:45:59;;;;;;;5.38;2.28;;;12.00;23.70;;;;;;4996107;28;20049;-74
2023/07/21 03:48:30;;;;;;;4.00;2.55;;;12.00;20.10;;;;;;5011879;28;20062;-74
2023/07/21 03:51:00;;;;;;;4.80;2.45;;;12.10;21.50;;;;;;5012113;28;20048;-74
2023/07/21 03:53:27;;;;;;;3.83;2.17;;;12.10;20.80;;;;;;5011956;28;20048;-74
2023/07/21 03:55:53;;;;;;;2.85;2.17;;;11.80;19.80;;;;;;5011981;28;20042;-74
2023/07/21 03:58:19;;;;;;;3.83;2.60;;;11.90;19.80;;;;;;5012149;28;20081;-74
2023/07/21 04:00:45;;;;;;;5.55;2.40;;;12.00;23.80;;;;;;5011958;28;20184;-74
2023/07/21 04:03:13;;;;;;;4.25;2.92;;;12.00;24.00;;;;;;5011855;28;20520;-74
2023/07/21 04:05:38;;;;;;;6.18;2.65;;;12.40;25.20;;;;;;5011917;28;20041;-74
2023/07/21 04:08:05;;;;;;;5.10;2.60;;;12.60;24.60;;;;;;5011741;28;20068;-74
2023/07/21 04:10:31;;;;;;;4.72;2.53;;;12.00;28.10;;;;;;5011790;28;20038;-74
2023/07/21 04:12:57;;;;;;;4.45;2.47;;;12.00;30.30;;;;;;5013017;28;20046;-73
2023/07/21 04:15:26;;;;;;;4.45;2.58;;;11.90;28.40;;;;;;5018272;28;20044;-74
2023/07/21 04:17:53;;;;;;;3.70;2.65;;;13.10;29.40;;;;;;5018212;28;20038;-73
2023/07/21 04:20:18;;;;;;;5.93;3.08;;;12.10;33.20;;;;;;5018521;28;20038;-73
2023/07/21 04:22:45;;;;;;;3.28;2.38;;;13.20;29.90;;;;;;5018170;28;20044;-73
2023/07/21 04:25:11;;;;;;;4.45;2.60;;;12.00;32.40;;;;;;5001868;28;20121;-74
2023/07/21 04:27:37;;;;;;;4.70;3.10;;;11.90;34.60;;;;;;5018061;28;20120;-74
2023/07/21 04:30:03;;;;;;;3.83;2.70;;;12.80;39.30;;;;;;5018141;28;20034;-74
2023/07/21 04:32:29;;;;;;;4.68;2.50;;;12.30;40.10;;;;;;5018068;28;20045;-74
2023/07/21 04:34:55;;;;;;;4.82;2.78;;;12.10;41.30;;;;;;5018165;28;20045;-74
2023/07/21 04:37:20;;;;;;;6.40;3.08;;;12.30;38.90;;;;;;5018495;28;20123;-73
2023/07/21 04:39:46;;;;;;;8.20;2.67;;;12.30;40.50;;;;;;5018056;28;20038;-74
2023/07/21 04:42:12;;;;;;;4.45;2.80;;;12.50;38.30;;;;;;5018015;28;20049;-74
2023/07/21 04:44:37;;;;;;;4.95;2.85;;;12.40;38.30;;;;;;5017899;28;20386;-74
2023/07/21 04:47:06;;;;;;;6.65;2.80;;;12.30;38.60;;;;;;5017932;28;20065;-74
2023/07/21 04:49:32;;;;;;;4.03;2.50;;;12.70;39.70;;;;;;5017908;28;20034;-74
2023/07/21 04:51:58;;;;;;;4.22;2.67;;;12.80;34.20;;;;;;5018215;28;20104;-74
2023/07/21 04:54:24;;;;;;;7.38;2.97;;;13.30;30.20;;;;;;5017876;28;20037;-74
2023/07/21 04:56:52;;;;;;;3.65;2.47;;;12.60;26.50;;;;;;5017937;28;20482;-74
2023/07/21 04:59:18;;;;;;;5.93;2.63;;;13.00;24.10;;;;;;5017871;28;20493;-74
2023/07/21 05:01:45;;;;;;;4.40;2.28;;;13.00;19.90;;;;;;5017895;28;20099;-74
2023/07/21 05:04:10;;;;;;;4.63;2.60;;;12.90;18.00;;;;;;5017864;28;20128;-74
2023/07/21 05:06:36;;;;;;;3.65;2.35;;;13.20;13.80;;;;;;5018078;28;20553;-74
2023/07/21 05:09:01;;;;;;;4.85;2.53;;;13.90;10.50;;;;;;5001746;28;20048;-74
2023/07/21 05:11:27;;;;;;;7.35;2.65;;;13.30;6.30;;;;;;5017768;28;20042;-74
2023/07/21 05:13:53;;;;;;;4.50;2.28;;;13.40;2.90;;;;;;5017775;28;20049;-74
2023/07/21 05:16:19;;;;;;;6.03;2.67;;;13.10;1.00;;;;;;5018016;28;20089;-74
2023/07/21 05:18:45;;;;;;;3.95;2.33;;;13.20;1.80;;;;;;5017705;28;20076;-74
2023/07/21 05:21:10;;;;;;;3.35;2.05;;;13.80;1.00;;;;;;5017556;28;20459;-74
2023/07/21 05:23:36;;;;;;;3.30;2.08;;;13.60;1.00;;;;;;5017694;28;20045;-74
2023/07/21 05:26:02;;;;;;;3.85;2.42;;;13.60;1.00;;;;;;5014036;28;20042;-74
2023/07/21 05:28:29;;;;;;;3.45;2.28;;;14.40;1.00;;;;;;5014885;28;20168;-74
2023/07/21 05:30:55;;;;;;;6.07;2.17;;;13.70;1.00;;;;;;4998473;28;20042;-74
2023/07/21 05:33:20;;;;;;;3.50;2.03;;;13.30;1.00;;;;;;5014834;28;20129;-74
2023/07/21 05:35:46;;;;;;;4.68;2.40;;;13.50;1.00;;;;;;5014720;28;20540;-74
2023/07/21 05:38:13;;;;;;;4.75;2.25;;;13.70;1.00;;;;;;5014337;28;20041;-73
2023/07/21 05:40:39;;;;;;;3.03;1.90;;;14.60;1.00;;;;;;5014389;28;20046;-73
2023/07/21 05:43:05;;;;;;;4.07;2.22;;;;;;;;;;5014283;28;20129;-73
2023/07/21 05:45:31;;;;;;;5.00;2.13;;;;;;;;;;5014292;28;20054;-72
2023/07/21 05:47:58;;;;;;;3.63;1.83;;;;;;;;;;5014216;28;20503;-74
2023/07/21 05:50:24;;;;;;;3.67;1.70;;;;;;;;;;5014141;28;20050;-73
2023/07/21 05:52:53;;;;;;;4.15;1.90;;;;;;;;;;5014093;28;20121;-73
2023/07/21 05:55:19;;;;;;;4.93;2.58;;;14.70;99.90;;;;;;5014358;28;20041;-73
2023/07/21 05:57:45;;;;;;;2.58;1.52;;;14.80;99.90;;;;;;5013999;28;20129;-73
2023/07/21 06:00:15;;;;;;;2.88;1.42;;;14.80;99.90;;;;;;5014305;28;20555;-74
2023/07/21 06:02:41;;;;;;;3.95;1.50;;;14.90;1.00;;;;;;5014024;28;20046;-74
2023/07/21 06:05:08;;;;;;;2.42;1.40;;;15.00;99.90;;;;;;5013948;28;20069;-72
2023/07/21 06:07:34;;;;;;;6.63;1.70;;;15.20;99.90;;;;;;5013938;28;20053;-76
2023/07/21 06:09:59;;;;;;;2.08;1.30;;;15.60;1.00;;;;;;4997487;28;20054;-74
2023/07/21 06:12:25;;;;;;;3.08;1.40;;;15.40;47.00;;;;;;5013701;28;20382;-75
2023/07/21 06:14:51;;;;;;;1.90;1.20;;;16.10;99.90;;;;;;5013771;28;20029;-74
2023/07/21 06:17:19;;;;;;;4.65;1.40;;;15.70;99.90;;;;;;5013725;28;20444;-74
2023/07/21 06:19:47;;;;;;;4.63;1.67;;;15.80;99.90;;;;;;5013876;28;20129;-75
2023/07/21 06:22:12;;;;;;;2.70;1.45;;;15.90;1.00;;;;;;5013562;28;20048;-77
2023/07/21 06:24:39;;;;;;;2.50;1.17;;;16.00;99.40;;;;;;4997170;28;20497;-78
2023/07/21 06:27:05;;;;;;;3.50;1.35;;;16.50;99.90;;;;;;4997199;28;20034;-78
2023/07/21 06:29:31;;;;;;;2.42;1.15;;;16.30;99.90;;;;;;5013431;28;20063;-78
2023/07/21 06:31:57;;;;;;;2.60;1.35;;;16.40;1.00;;;;;;5013459;28;20038;-81
2023/07/21 06:34:22;;;;;;;1.92;1.40;;;16.50;99.90;;;;;;5013688;28;20029;-75
2023/07/21 06:36:48;;;;;;;5.22;1.63;;;16.50;99.90;;;;;;5013158;28;20087;-75
2023/07/21 06:39:13;;;;;;;1.77;1.20;;;16.70;88.70;;;;;;5013470;28;20046;-75
2023/07/21 06:41:39;;;;;;;3.60;1.70;;;16.70;1.00;;;;;;5013496;28;20042;-75
2023/07/21 06:44:05;;;;;;;1.77;1.10;;;17.90;1.00;;;;;;5012927;28;20054;-75
2023/07/21 06:46:30;;;;;;;1.88;1.00;;;16.90;99.90;;;;;;5013068;28;20053;-75
2023/07/21 06:48:57;;;;;;;3.08;1.17;;;16.90;99.90;;;;;;4996578;28;20101;-75
2023/07/21 06:51:24;;;;;;;0.98;0.80;;;17.00;99.90;;;;;;5012952;28;20398;-74
2023/07/21 06:53:51;;;;;;;2.33;1.45;;;17.40;99.90;;;;;;5012965;28;20116;-75
2023/07/21 06:56:16;;;;;;;2.30;1.17;;;18.50;99.90;;;;;;5012894;28;20129;-74
2023/07/21 06:58:43;;;;;;;1.85;1.20;;;17.30;99.90;;;;;;4996537;28;20120;-74
2023/07/21 07:01:09;;;;;;;2.58;1.10;;;17.40;99.90;;;;;;5013090;28;20045;-74
2023/07/21 07:03:35;;;;;;;3.03;1.15;;;17.90;99.90;;;;;;4996406;28;20045;-75
2023/07/21 07:06:00;;;;;;;3.30;1.00;;;17.60;99.90;;;;;;4996517;28;20038;-75
2023/07/21 07:08:26;;;;;;;3.15;1.20;;;17.70;99.90;;;;;;5012967;28;20041;-74
2023/07/21 07:10:52;;;;;;;3.50;0.90;;;17.80;99.90;;;;;;5012925;28;20044;-74
2023/07/21 07:13:18;;;;;;;1.95;1.08;;;17.80;99.90;;;;;;5012624;28;20049;-74
2023/07/21 07:15:50;;;;;;;4.70;1.30;;;19.00;99.90;;;;;;5012572;28;20125;-74
2023/07/21 07:18:16;;;;;;;1.42;1.10;;;17.80;99.90;;;;;;5012403;28;20056;-78
2023/07/21 07:20:50;;;;;;;1.50;1.10;;;19.10;99.90;;;;;;5012576;28;20496;-78
2023/07/21 07:23:16;;;;;;;1.17;0.85;;;18.00;83.40;;;;;;5012564;28;20049;-77
2023/07/21 07:25:47;;;;;;;1.50;1.00;;;18.20;70.70;;;;;;5012568;28;20445;-78
2023/07/21 07:28:13;;;;;;;1.13;0.77;;;18.30;37.60;;;;;;5012723;28;20072;-78
2023/07/21 07:30:39;;;;;;;1.30;0.80;;;18.30;43.80;;;;;;5012323;28;20120;-78
2023/07/21 07:33:05;;;;;;;3.40;1.25;;;18.30;41.30;;;;;;5012374;28;20130;-77
2023/07/21 07:35:30;;;;;;;1.50;1.00;;;18.30;42.80;;;;;;5012232;28;20034;-77
2023/07/21 07:37:56;;;;;;;1.20;0.80;;;18.40;20.90;;;;;;4995924;28;20080;-78
2023/07/21 07:40:22;;;;;;;1.38;0.90;;;18.30;23.40;;;;;;5012193;28;20497;-77
2023/07/21 07:42:48;;;;;;;1.27;0.90;;;18.80;22.10;;;;;;4995872;28;20076;-76
2023/07/21 07:45:14;;;;;;;1.80;1.15;;;19.50;19.10;;;;;;4995790;28;20045;-77
2023/07/21 07:47:40;;;;;;;3.63;1.35;;;18.20;8.90;;;;;;5011761;28;20409;-77
2023/07/21 07:50:08;;;;;;;2.53;1.27;;;19.20;10.30;;;;;;5012001;28;20038;-77
2023/07/21 07:52:33;;;;;;;3.13;0.90;;;18.80;9.40;;;;;;4995572;28;20046;-78
2023/07/21 07:54:59;;;;;;;1.20;0.73;;;18.90;11.50;;;;;;5012191;28;20057;-77
2023/07/21 07:57:26;;;;;;;1.05;0.85;;;18.90;11.70;;;;;;5014357;28;20034;-77
2023/07/21 07:59:52;;;;;;;2.15;0.80;;;19.70;1.00;;;;;;5000249;28;20184;-76
2023/07/21 08:02:17;;;;;;;1.20;0.75;;;19.60;1.00;;;;;;5016487;28;20077;-77
2023/07/21 08:04:43;;;;;;;1.83;0.80;;;19.00;1.00;;;;;;5015337;28;20052;-77
2023/07/21 08:07:08;;;;;;;0.70;0.70;;;18.60;1.00;;;;;;5013346;28;20072;-77
2023/07/21 08:09:35;;;;;;;2.00;0.80;;;19.20;1.00;;;;;;5013718;28;20133;-78
2023/07/21 08:12:00;;;;;;;3.40;0.82;;;19.80;1.00;;;;;;5013518;28;20073;-78
2023/07/21 08:14:26;;;;;;;1.95;0.77;;;19.40;1.00;;;;;;5012884;28;20041;-74
2023/07/21 08:16:52;;;;;;;0.93;0.63;;;19.50;1.00;;;;;;5011628;28;20034;-74
2023/07/21 08:19:19;;;;;;;1.38;1.02;;;20.30;1.00;;;;;;5011621;28;20069;-74
2023/07/21 08:21:47;;;;;;;2.35;1.00;;;19.40;1.00;;;;;;5011656;28;20069;-74
2023/07/21 08:24:14;;;;;;;1.50;0.80;;;19.30;1.00;;;;;;5011807;28;20100;-74
2023/07/21 08:26:40;;;;;;;1.55;1.00;;;19.70;1.00;;;;;;5012149;28;20037;-74
2023/07/21 08:29:08;;;;;;;1.02;0.70;;;20.10;1.00;;;;;;4995373;28;20030;-74
2023/07/21 08:31:34;;;;;;;2.20;0.80;;;19.40;1.00;;;;;;5011456;28;20056;-74
2023/07/21 08:34:00;;;;;;;1.40;0.68;;;19.50;1.00;;;;;;5011472;28;20034;-74
2023/07/21 08:36:25;;;;;;;2.15;1.20;;;19.60;1.00;;;;;;5012048;28;20034;-74
2023/07/21 08:38:51;;;;;;;1.70;0.98;;;19.20;1.00;;;;;;5011431;28;20506;-74
2023/07/21 08:41:19;;;;;;;1.30;0.77;;;19.60;1.00;;;;;;5011403;28;20038;-74
2023/07/21 08:43:47;;;;;;;1.45;0.90;;;19.50;1.00;;;;;;5011475;28;20049;-74
2023/07/21 08:46:12;;;;;;;0.93;0.80;;;19.60;1.00;;;;;;5011616;28;20038;-73
2023/07/21 08:48:39;;;;;;;1.65;1.00;;;20.30;1.00;;;;;;5011338;28;20449;-74
2023/07/21 08:51:06;;;;;;;1.63;0.80;;;19.50;1.00;;;;;;5011526;28;20445;-74
2023/07/21 08:53:32;;;;;;;1.35;0.90;;;20.00;1.00;;;;;;5011413;28;20117;-74
2023/07/21 08:55:59;;;;;;;2.47;0.82;;;19.80;1.00;;;;;;5011700;28;20042;-74
2023/07/21 08:58:26;;;;;;;1.65;0.70;;;20.30;1.00;;;;;;5011361;28;20042;-74
2023/07/21 09:00:52;;;;;;;0.80;0.50;;;20.30;1.00;;;;;;5013271;28;20133;-73
2023/07/21 09:03:22;;;;;;;1.30;0.80;;;20.30;1.00;;;;;;5015716;28;20132;-74
2023/07/21 09:05:49;;;;;;;0.95;0.68;;;20.40;1.00;;;;;;5015332;28;20038;-74
2023/07/21 09:08:20;;;;;;;2.22;0.70;;;20.20;1.00;;;;;;5015026;28;20088;-74
2023/07/21 09:10:46;;;;;;;1.73;0.82;;;20.30;1.00;;;;;;5015038;28;20437;-74
2023/07/21 09:13:19;;;;;;;0.88;0.60;;;20.40;1.00;;;;;;5014924;28;20076;-74
2023/07/21 09:16:05;;;;;;;1.02;0.65;;;20.40;1.00;;;;;;4998505;28;20327;-74
2023/07/21 09:18:39;;;;;;;0.93;0.70;;;20.50;1.00;;;;;;5014744;28;20104;-74
2023/07/21 09:21:06;;;;;;;1.23;0.60;;;20.40;1.00;;;;;;5014866;28;20168;-74
2023/07/21 09:23:33;;;;;;;0.77;0.63;;;21.30;1.00;;;;;;5014963;28;20058;-74
2023/07/21 09:26:00;;;;;;;1.02;0.75;;;21.00;1.00;;;;;;5015006;28;20489;-74
2023/07/21 09:28:44;;;;;;;2.03;0.80;;;20.90;1.00;;;;;;5014470;28;20096;-73
2023/07/21 09:31:11;;;;;;;1.00;0.70;;;20.60;1.00;;;;;;5014684;28;20042;-73
2023/07/21 09:33:42;;;;;;;3.00;0.82;;;20.70;1.00;;;;;;4998065;28;20038;-73
2023/07/21 09:36:14;;;;;;;3.75;1.05;;;20.80;1.00;;;;;;5014458;28;20093;-73
2023/07/21 09:38:40;;;;;;;1.80;0.73;;;20.80;1.00;;;;;;5014544;28;20081;-73
2023/07/21 09:41:09;;;;;;;1.58;0.70;;;20.70;1.00;;;;;;5014538;28;20477;-73
2023/07/21 09:43:36;;;;;;;1.02;0.60;;;20.60;1.00;;;;;;5013976;28;20061;-72
2023/07/21 09:46:03;;;;;;;1.48;0.70;;;20.80;1.00;;;;;;5014184;28;20104;-77
2023/07/21 09:48:30;;;;;;;3.45;0.70;;;20.90;1.00;;;;;;5013999;28;20046;-76
2023/07/21 09:51:00;;;;;;;1.27;0.70;;;20.90;1.00;;;;;;5014052;28;20041;-77
2023/07/21 09:53:40;;;;;;;0.98;0.60;;;21.00;1.00;;;;;;5014148;28;20033;-77
2023/07/21 09:56:07;;;;;;;;;;;21.10;1.00;;;;;;5014565;28;20077;-77
2023/07/21 09:58:45;;;;;;;1.00;0.70;;;20.90;1.00;;;;;;5014116;28;19921;-76
2023/07/21 10:01:12;;;;;;;1.42;0.73;;;21.20;1.00;;;;;;5014058;28;20087;-79
2023/07/21 10:03:38;;;;;;;0.77;0.52;;;21.40;1.00;;;;;;5014101;28;20034;-74
2023/07/21 10:06:06;;;;;;;1.23;0.70;;;;;;;;;;5014197;28;20489;-74
2023/07/21 10:08:36;;;;;;;2.28;0.70;;;21.70;1.00;;;;;;5013894;28;20049;-74
2023/07/21 10:11:03;;;;;;;1.27;0.60;;;21.60;1.00;;;;;;5013235;28;20406;-75
2023/07/21 10:13:30;;;;;;;1.17;0.65;;;21.50;1.00;;;;;;5013845;28;20046;-75
2023/07/21 10:16:05;;;;;;;1.27;0.70;;;21.50;1.00;;;;;;5014113;28;20033;-75
2023/07/21 10:18:31;;;;;;;1.52;0.80;;;21.60;1.00;;;;;;5013736;28;20046;-75
2023/07/21 10:20:57;;;;;;;1.67;0.88;;;22.60;1.00;;;;;;5013601;28;20409;-76
2023/07/21 10:23:30;;;;;;;1.35;0.80;;;21.50;1.00;;;;;;5013829;28;20046;-74
2023/07/21 10:26:02;;;;;;;2.35;0.70;;;21.10;1.00;;;;;;5013614;28;20050;-74
2023/07/21 10:28:37;;;;;;;1.58;0.70;;;21.90;1.00;;;;;;5013481;28;20046;-73
2023/07/21 10:31:24;;;;;;;1.58;0.77;;;20.90;1.00;;;;;;5013528;28;20128;-73
2023/07/21 10:34:11;;;;;;;0.63;0.50;;;20.80;1.00;;;;;;4997143;28;20390;-73
2023/07/21 10:36:58;;;;;;;2.05;1.02;;;20.70;1.00;;;;;;5013297;28;20036;-73
2023/07/21 10:39:32;;;;;;;1.52;0.90;;;20.80;1.00;;;;;;5013245;28;20481;-74
2023/07/21 10:42:00;;;;;;;1.83;0.70;;;20.80;1.00;;;;;;5013340;28;20085;-74
2023/07/21 10:44:34;;;;;;;1.42;0.90;;;20.80;1.00;;;;;;5013188;28;20058;-74
2023/07/21 10:46:59;;;;;;;1.92;0.82;;;20.80;1.00;;;;;;4997232;28;20092;-74
2023/07/21 10:49:25;;;;;;;1.10;0.70;;;20.90;1.00;;;;;;5012929;28;20042;-73
2023/07/21 10:51:50;;;;;;;2.25;0.95;;;20.80;1.00;;;;;;5013398;28;20037;-75
2023/07/21 10:54:17;;;;;;;1.27;0.77;;;22.00;1.00;;;;;;5013109;28;20041;-77
2023/07/21 10:56:45;;;;;;;1.08;0.80;;;20.70;1.00;;;;;;5013522;28;20056;-78
2023/07/21 10:59:13;;;;;;;1.13;0.73;;;21.50;1.00;;;;;;5013072;28;20459;-77
2023/07/21 11:01:44;;;;;;;1.73;0.80;;;20.80;1.00;;;;;;5013077;28;20041;-77
2023/07/21 11:04:11;;;;;;;1.48;0.85;;;21.00;1.00;;;;;;5013044;28;20049;-78
2023/07/21 11:06:44;;;;;;;1.92;0.65;;;21.90;1.00;;;;;;5013007;28;20038;-78
2023/07/21 11:09:13;;;;;;;1.70;0.90;;;21.20;1.00;;;;;;5012827;28;20413;-78
2023/07/21 11:11:50;;;;;;;3.75;0.95;;;21.20;1.00;;;;;;5012954;28;20041;-78
2023/07/21 11:14:18;;;;;;;2.28;1.00;;;21.20;1.00;;;;;;5012938;28;20040;-78
2023/07/21 11:16:48;;;;;;;1.23;0.80;;;21.20;1.00;;;;;;5012762;28;20121;-78
2023/07/21 11:19:16;;;;;;;1.63;0.90;;;21.10;1.00;;;;;;4996442;28;20070;-78
2023/07/21 11:21:41;;;;;;;1.90;1.02;;;21.20;1.00;;;;;;5012700;28;20045;-78
2023/07/21 11:24:08;;;;;;;1.83;1.13;;;21.30;1.00;;;;;;5012043;28;20478;-78
2023/07/21 11:26:36;;;;;;;1.33;0.88;;;21.40;1.00;;;;;;4996226;28;20128;-77
2023/07/21 11:29:04;;;;;;;3.30;1.00;;;21.50;1.00;;;;;;5012674;28;20042;-78
2023/07/21 11:31:33;;;;;;;1.08;0.80;;;21.50;1.00;;;;;;4996059;28;20037;-78
2023/07/21 11:33:58;;;;;;;1.95;1.10;;;22.70;1.00;;;;;;5012593;28;20396;-78
2023/07/21 11:36:27;;;;;;;1.75;0.80;;;21.60;1.00;;;;;;5012377;28;20121;-78
2023/07/21 11:39:04;;;;;;;3.83;0.88;;;21.60;1.00;;;;;;5012622;28;20099;-78
2023/07/21 11:41:44;;;;;;;1.38;0.88;;;21.50;1.00;;;;;;4996072;28;20092;-78
2023/07/21 11:44:19;;;;;;;1.88;0.90;;;21.40;1.00;;;;;;5012226;28;20062;-79
2023/07/21 11:46:55;;;;;;;1.67;1.08;;;21.20;1.00;;;;;;5012287;28;20081;-79
2023/07/21 11:49:25;;;;;;;3.22;0.90;;;21.10;1.00;;;;;;5011989;28;20103;-78
2023/07/21 11:51:52;;;;;;;1.67;0.95;;;21.20;1.00;;;;;;5012371;28;20037;-78
2023/07/21 11:54:23;;;;;;;1.48;0.88;;;21.10;1.00;;;;;;5012203;28;20046;-78
2023/07/21 11:56:49;;;;;;;2.38;1.10;;;21.20;1.00;;;;;;5012500;28;20053;-79
2023/07/21 11:59:16;;;;;;;1.63;0.90;;;21.30;1.00;;;;;;4995974;28;20131;-78
2023/07/21 12:01:42;;;;;;;1.95;1.10;;;21.60;1.00;;;;;;5012108;28;20120;-73
2023/07/21 12:04:10;;;;;;;3.28;1.10;;;21.70;1.00;;;;;;5011873;28;20077;-74
2023/07/21 12:06:36;;;;;;;1.13;0.70;;;21.80;1.00;;;;;;5011809;28;20503;-74
2023/07/21 12:09:05;;;;;;;2.03;1.05;;;21.80;1.00;;;;;;5012310;28;20184;-73
2023/07/21 12:11:31;;;;;;;2.22;0.85;;;22.40;1.00;;;;;;4995506;28;20405;-73
2023/07/21 12:13:57;;;;;;;1.65;1.10;;;21.80;1.00;;;;;;5012138;28;20121;-75
2023/07/21 12:16:23;;;;;;;1.20;0.70;;;21.40;1.00;;;;;;4995629;28;20104;-74
2023/07/21 12:18:49;;;;;;;2.03;1.10;;;21.20;1.00;;;;;;5011744;28;20409;-74
2023/07/21 12:21:17;;;;;;;4.70;0.90;;;21.90;1.00;;;;;;5011992;28;20030;-74
2023/07/21 12:23:43;;;;;;;1.23;0.80;;;21.20;1.00;;;;;;5012339;28;20041;-75
2023/07/21 12:26:09;;;;;;;2.95;1.00;;;21.40;1.00;;;;;;4995304;28;20104;-74
2023/07/21 12:28:34;;;;;;;2.15;1.00;;;21.60;1.00;;;;;;4995302;28;20498;-73
2023/07/21 12:31:00;;;;;;;2.03;1.00;;;21.60;1.00;;;;;;5011572;28;20078;-73
2023/07/21 12:33:27;;;;;;;1.98;1.23;;;22.20;1.00;;;;;;5011528;28;20038;-74
2023/07/21 12:35:53;;;;;;;1.50;0.90;;;22.00;1.00;;;;;;5015298;28;20042;-73
2023/07/21 12:38:20;;;;;;;1.85;0.70;;;21.90;1.00;;;;;;5015547;28;20091;-74
2023/07/21 12:40:46;;;;;;;1.27;0.80;;;21.80;1.00;;;;;;5015729;28;20077;-73
2023/07/21 12:43:12;;;;;;;1.75;0.80;;;21.80;1.00;;;;;;5015521;28;20057;-73
2023/07/21 12:45:41;;;;;;;1.13;0.70;;;21.70;1.00;;;;;;5015388;28;20052;-73
2023/07/21 12:48:07;;;;;;;3.28;0.70;;;21.70;1.00;;;;;;5015649;28;20048;-73
2023/07/21 12:50:33;;;;;;;3.08;1.17;;;21.40;1.00;;;;;;5015157;28;20536;-73
2023/07/21 12:52:59;;;;;;;1.48;0.80;;;21.30;1.00;;;;;;5015538;28;20124;-73
2023/07/21 12:55:25;;;;;;;1.33;0.50;;;21.10;1.00;;;;;;5015269;28;20104;-73
2023/07/21 12:57:51;;;;;;;1.20;0.60;;;21.00;1.00;;;;;;5015314;28;20453;-75
2023/07/21 13:00:17;;;;;;;1.30;0.90;;;20.90;1.00;;;;;;5015256;28;20044;-74